Insula Oya 2 — FUKI — position and weather

sailwx.info

Track history (hours):
 
Tides and Currents Weather Stations Pressure Air Temp Water Temp Dewpoint Dewpoint Depression Visibility Wind Speed Wind Dir Waves Ship Positions

Insula Oya 2

Last reported at 2016-Apr-30 08:22 UTC. Time now 2016-Apr-30 08:55 UTC.
Position N 46°50' W 002°15'.

Length 50 m; draft 2.5 m.

Type: Passenger vessel. MMSI: 227004900.

Date/timePositionNaut miles runAvg speedWind from/ knotsBaromVisibWave heightAir tempDewpointWater temp
2016-Apr-30 08:22N 46°50' W 002°15'6 7.3
2016-Apr-30 07:33N 46°54' W 002°08'0 0.0
2016-Apr-30 06:32N 46°54' W 002°08'0 0.0
2016-Apr-30 05:32N 46°54' W 002°08'0 0.0
2016-Apr-30 04:29N 46°54' W 002°08'0 0.0
2016-Apr-30 03:32N 46°54' W 002°08'0 0.0
2016-Apr-30 02:32N 46°54' W 002°08'0 0.0
2016-Apr-30 01:32N 46°54' W 002°08'0 0.0
2016-Apr-30 00:32N 46°54' W 002°08'0 0.0
2016-Apr-29 23:32N 46°54' W 002°08'0 0.0
2016-Apr-29 22:32N 46°54' W 002°08'0 0.0
2016-Apr-29 21:29N 46°54' W 002°08'0 0.0
2016-Apr-29 20:32N 46°54' W 002°08'0 0.0
2016-Apr-29 19:29N 46°54' W 002°08'0 0.0
2016-Apr-29 18:29N 46°54' W 002°08'0 0.0
2016-Apr-29 17:32N 46°54' W 002°08'0 0.0
2016-Apr-29 16:32N 46°54' W 002°08'0 0.0
2016-Apr-29 15:32N 46°54' W 002°08'0 0.0
2016-Apr-29 14:32N 46°54' W 002°08'0 0.0
2016-Apr-29 13:29N 46°54' W 002°08'0 0.0
2016-Apr-29 12:32N 46°54' W 002°08'0 0.0
2016-Apr-29 11:32N 46°54' W 002°08'0 0.0
2016-Apr-29 10:32N 46°54' W 002°08'7 1.7
2016-Apr-29 06:25N 46°49' W 002°16'7 8.0
2016-Apr-29 05:33N 46°54' W 002°08'0 0.0
2016-Apr-29 04:33N 46°54' W 002°08'0 0.0
2016-Apr-29 03:33N 46°54' W 002°08'0 0.0
2016-Apr-29 02:33N 46°54' W 002°08'0 0.0
2016-Apr-29 01:33N 46°54' W 002°08'0 0.0
2016-Apr-29 00:33N 46°54' W 002°08'0 0.0
2016-Apr-28 23:33N 46°54' W 002°08'0 0.0
2016-Apr-28 22:33N 46°54' W 002°08'0 0.0
2016-Apr-28 21:33N 46°54' W 002°08'0 0.0
2016-Apr-28 20:33N 46°54' W 002°08'0 0.0
2016-Apr-28 19:33N 46°54' W 002°08'0 0.0
2016-Apr-28 18:33N 46°54' W 002°08'2 0.2
2016-Apr-28 05:33N 46°53' W 002°11'2 2.2
2016-Apr-28 04:33N 46°54' W 002°08'0 0.0
2016-Apr-28 03:32N 46°54' W 002°08'0 0.0
2016-Apr-28 02:32N 46°54' W 002°08'0 0.0
2016-Apr-28 01:32N 46°54' W 002°08'0 0.0
2016-Apr-28 00:32N 46°54' W 002°08'0 0.0
2016-Apr-27 23:32N 46°54' W 002°08'0 0.0
2016-Apr-27 22:30N 46°54' W 002°08'0 0.0
2016-Apr-27 21:32N 46°54' W 002°08'0 0.0
2016-Apr-27 20:29N 46°54' W 002°08'0 0.0
2016-Apr-27 19:29N 46°54' W 002°08'0 0.0
2016-Apr-27 18:32N 46°54' W 002°08'0 0.0
2016-Apr-27 17:32N 46°54' W 002°08'3 0.3
2016-Apr-27 05:33N 46°52' W 002°13'3 3.3
2016-Apr-27 04:33N 46°54' W 002°08'0 0.0
2016-Apr-27 03:32N 46°54' W 002°08'0 0.0
2016-Apr-27 02:32N 46°54' W 002°08'0 0.0
2016-Apr-27 01:32N 46°54' W 002°08'0 0.0
2016-Apr-27 00:32N 46°54' W 002°08'0 0.0
2016-Apr-26 23:32N 46°54' W 002°08'0 0.0
2016-Apr-26 22:32N 46°54' W 002°08'0 0.0
2016-Apr-26 21:32N 46°54' W 002°08'0 0.0
2016-Apr-26 20:32N 46°54' W 002°08'0 0.0
2016-Apr-26 19:32N 46°54' W 002°08'0 0.0
2016-Apr-26 18:32N 46°54' W 002°08'0 0.0
2016-Apr-26 17:29N 46°54' W 002°08'6 6.5
2016-Apr-26 16:31N 46°49' W 002°15'4 0.4
2016-Apr-26 05:32N 46°53' W 002°12'2 2.4
2016-Apr-26 04:33N 46°54' W 002°08'0 0.0
2016-Apr-26 03:15N 46°54' W 002°08'0 0.0
2016-Apr-26 02:33N 46°54' W 002°08'0 0.0
2016-Apr-26 01:33N 46°54' W 002°08'0 0.0
2016-Apr-26 00:33N 46°54' W 002°08'0 0.0
2016-Apr-25 23:33N 46°54' W 002°08'0 0.0
2016-Apr-25 22:33N 46°54' W 002°08'0 0.0
2016-Apr-25 21:33N 46°54' W 002°08'0 0.0
2016-Apr-25 20:30N 46°54' W 002°08'0 0.0
2016-Apr-25 19:27N 46°54' W 002°08'0 0.0
2016-Apr-25 18:33N 46°54' W 002°08'0 0.0
2016-Apr-25 17:33N 46°54' W 002°08'0 0.0
2016-Apr-25 16:33N 46°54' W 002°08'3 3.3
2016-Apr-25 15:33N 46°52' W 002°12'8 1.0
2016-Apr-25 07:29N 46°46' W 002°19'1111.8
2016-Apr-25 06:33N 46°54' W 002°08'0 0.0
2016-Apr-25 05:31N 46°54' W 002°08'0 0.0
2016-Apr-25 04:31N 46°54' W 002°08'7 7.0
2016-Apr-25 03:34N 46°49' W 002°16'4 0.1
2016-Apr-23 05:33N 46°52' W 002°12'3 2.9
2016-Apr-23 04:31N 46°54' W 002°08'0 0.0
2016-Apr-23 03:31N 46°54' W 002°08'0 0.0
2016-Apr-23 02:31N 46°54' W 002°08'0 0.0
2016-Apr-23 01:31N 46°54' W 002°08'0 0.0
2016-Apr-23 00:28N 46°54' W 002°08'0 0.0
2016-Apr-22 23:28N 46°54' W 002°08'0 0.0
2016-Apr-22 22:31N 46°54' W 002°08'0 0.0
2016-Apr-22 21:25N 46°54' W 002°08'0 0.0
2016-Apr-22 20:31N 46°54' W 002°08'0 0.0
2016-Apr-22 19:31N 46°54' W 002°08'0 0.0
2016-Apr-22 18:31N 46°54' W 002°08'0 0.0
2016-Apr-22 17:31N 46°54' W 002°08'0 0.0
2016-Apr-22 16:31N 46°54' W 002°08'0 0.0
2016-Apr-22 15:31N 46°54' W 002°08'0 0.0
2016-Apr-22 14:31N 46°54' W 002°08'5 0.6
2016-Apr-22 05:33N 46°50' W 002°14'5 5.0
2016-Apr-22 04:31N 46°54' W 002°08'0 0.0
2016-Apr-22 03:28N 46°54' W 002°08'0 0.0
2016-Apr-22 02:31N 46°54' W 002°08'0 0.0
2016-Apr-22 01:31N 46°54' W 002°08'0 0.0
2016-Apr-22 00:31N 46°54' W 002°08'0 0.0
2016-Apr-21 23:31N 46°54' W 002°08'0 0.0
2016-Apr-21 22:31N 46°54' W 002°08'0 0.0
2016-Apr-21 21:31N 46°54' W 002°08'0 0.0
2016-Apr-21 20:31N 46°54' W 002°08'0 0.0
2016-Apr-21 19:31N 46°54' W 002°08'0 0.0
2016-Apr-21 18:32N 46°54' W 002°08'0 0.0
2016-Apr-21 17:31N 46°54' W 002°08'0 0.0
2016-Apr-21 16:28N 46°54' W 002°08'0 0.0
2016-Apr-21 15:25N 46°54' W 002°08'0 0.0
2016-Apr-21 14:31N 46°54' W 002°08'7 7.0
2016-Apr-21 13:33N 46°49' W 002°16'6 0.7
2016-Apr-21 05:33N 46°44' W 002°20'1211.6
2016-Apr-21 04:29N 46°54' W 002°08'0 0.0
2016-Apr-21 03:32N 46°54' W 002°08'0 0.0
2016-Apr-21 02:32N 46°54' W 002°08'0 0.0
2016-Apr-21 01:32N 46°54' W 002°08'0 0.0
2016-Apr-21 00:32N 46°54' W 002°08'0 0.0
2016-Apr-20 23:32N 46°54' W 002°08'0 0.0
2016-Apr-20 22:29N 46°54' W 002°08'0 0.0
2016-Apr-20 21:32N 46°54' W 002°08'0 0.0
2016-Apr-20 20:32N 46°54' W 002°08'0 0.0
2016-Apr-20 19:32N 46°54' W 002°08'0 0.0
2016-Apr-20 18:29N 46°54' W 002°08'0 0.0
2016-Apr-20 17:32N 46°54' W 002°08'0 0.0
2016-Apr-20 16:29N 46°54' W 002°08'0 0.0
2016-Apr-20 15:32N 46°54' W 002°08'0 0.0
2016-Apr-20 14:32N 46°54' W 002°08'7 6.8
2016-Apr-20 13:32N 46°49' W 002°16'  
Track history (hours):
 
Tides and Currents Weather Stations Pressure Air Temp Water Temp Dewpoint Dewpoint Depression Visibility Wind Speed Wind Dir Waves Ship Positions

Insula Oya 2

Last reported at 2016-Apr-30 08:22 UTC. Time now 2016-Apr-30 08:55 UTC.
Position N 46°50' W 002°15'.

Length 50 m; draft 2.5 m.

Type: Passenger vessel. MMSI: 227004900.

Date/timePositionNaut miles runAvg speedWind from/ knotsBaromVisibWave heightAir tempDewpointWater temp
2016-Apr-30 08:22N 46°50' W 002°15'6 7.3
2016-Apr-30 07:33N 46°54' W 002°08'0 0.0
2016-Apr-30 06:32N 46°54' W 002°08'0 0.0
2016-Apr-30 05:32N 46°54' W 002°08'0 0.0
2016-Apr-30 04:29N 46°54' W 002°08'0 0.0
2016-Apr-30 03:32N 46°54' W 002°08'0 0.0
2016-Apr-30 02:32N 46°54' W 002°08'0 0.0
2016-Apr-30 01:32N 46°54' W 002°08'0 0.0
2016-Apr-30 00:32N 46°54' W 002°08'0 0.0
2016-Apr-29 23:32N 46°54' W 002°08'0 0.0
2016-Apr-29 22:32N 46°54' W 002°08'0 0.0
2016-Apr-29 21:29N 46°54' W 002°08'0 0.0
2016-Apr-29 20:32N 46°54' W 002°08'0 0.0
2016-Apr-29 19:29N 46°54' W 002°08'0 0.0
2016-Apr-29 18:29N 46°54' W 002°08'0 0.0
2016-Apr-29 17:32N 46°54' W 002°08'0 0.0
2016-Apr-29 16:32N 46°54' W 002°08'0 0.0
2016-Apr-29 15:32N 46°54' W 002°08'0 0.0
2016-Apr-29 14:32N 46°54' W 002°08'0 0.0
2016-Apr-29 13:29N 46°54' W 002°08'0 0.0
2016-Apr-29 12:32N 46°54' W 002°08'0 0.0
2016-Apr-29 11:32N 46°54' W 002°08'0 0.0
2016-Apr-29 10:32N 46°54' W 002°08'7 1.7
2016-Apr-29 06:25N 46°49' W 002°16'7 8.0
2016-Apr-29 05:33N 46°54' W 002°08'0 0.0
2016-Apr-29 04:33N 46°54' W 002°08'0 0.0
2016-Apr-29 03:33N 46°54' W 002°08'0 0.0
2016-Apr-29 02:33N 46°54' W 002°08'0 0.0
2016-Apr-29 01:33N 46°54' W 002°08'0 0.0
2016-Apr-29 00:33N 46°54' W 002°08'0 0.0
2016-Apr-28 23:33N 46°54' W 002°08'0 0.0
2016-Apr-28 22:33N 46°54' W 002°08'0 0.0
2016-Apr-28 21:33N 46°54' W 002°08'0 0.0
2016-Apr-28 20:33N 46°54' W 002°08'0 0.0
2016-Apr-28 19:33N 46°54' W 002°08'0 0.0
2016-Apr-28 18:33N 46°54' W 002°08'2 0.2
2016-Apr-28 05:33N 46°53' W 002°11'2 2.2
2016-Apr-28 04:33N 46°54' W 002°08'0 0.0
2016-Apr-28 03:32N 46°54' W 002°08'0 0.0
2016-Apr-28 02:32N 46°54' W 002°08'0 0.0
2016-Apr-28 01:32N 46°54' W 002°08'0 0.0
2016-Apr-28 00:32N 46°54' W 002°08'0 0.0
2016-Apr-27 23:32N 46°54' W 002°08'0 0.0
2016-Apr-27 22:30N 46°54' W 002°08'0 0.0
2016-Apr-27 21:32N 46°54' W 002°08'0 0.0
2016-Apr-27 20:29N 46°54' W 002°08'0 0.0
2016-Apr-27 19:29N 46°54' W 002°08'0 0.0
2016-Apr-27 18:32N 46°54' W 002°08'0 0.0
2016-Apr-27 17:32N 46°54' W 002°08'3 0.3
2016-Apr-27 05:33N 46°52' W 002°13'3 3.3
2016-Apr-27 04:33N 46°54' W 002°08'0 0.0
2016-Apr-27 03:32N 46°54' W 002°08'0 0.0
2016-Apr-27 02:32N 46°54' W 002°08'0 0.0
2016-Apr-27 01:32N 46°54' W 002°08'0 0.0
2016-Apr-27 00:32N 46°54' W 002°08'0 0.0
2016-Apr-26 23:32N 46°54' W 002°08'0 0.0
2016-Apr-26 22:32N 46°54' W 002°08'0 0.0
2016-Apr-26 21:32N 46°54' W 002°08'0 0.0
2016-Apr-26 20:32N 46°54' W 002°08'0 0.0
2016-Apr-26 19:32N 46°54' W 002°08'0 0.0
2016-Apr-26 18:32N 46°54' W 002°08'0 0.0
2016-Apr-26 17:29N 46°54' W 002°08'6 6.5
2016-Apr-26 16:31N 46°49' W 002°15'4 0.4
2016-Apr-26 05:32N 46°53' W 002°12'2 2.4
2016-Apr-26 04:33N 46°54' W 002°08'0 0.0
2016-Apr-26 03:15N 46°54' W 002°08'0 0.0
2016-Apr-26 02:33N 46°54' W 002°08'0 0.0
2016-Apr-26 01:33N 46°54' W 002°08'0 0.0
2016-Apr-26 00:33N 46°54' W 002°08'0 0.0
2016-Apr-25 23:33N 46°54' W 002°08'0 0.0
2016-Apr-25 22:33N 46°54' W 002°08'0 0.0
2016-Apr-25 21:33N 46°54' W 002°08'0 0.0
2016-Apr-25 20:30N 46°54' W 002°08'0 0.0
2016-Apr-25 19:27N 46°54' W 002°08'0 0.0
2016-Apr-25 18:33N 46°54' W 002°08'0 0.0
2016-Apr-25 17:33N 46°54' W 002°08'0 0.0
2016-Apr-25 16:33N 46°54' W 002°08'3 3.3
2016-Apr-25 15:33N 46°52' W 002°12'8 1.0
2016-Apr-25 07:29N 46°46' W 002°19'1111.8
2016-Apr-25 06:33N 46°54' W 002°08'0 0.0
2016-Apr-25 05:31N 46°54' W 002°08'0 0.0
2016-Apr-25 04:31N 46°54' W 002°08'7 7.0
2016-Apr-25 03:34N 46°49' W 002°16'4 0.1
2016-Apr-23 05:33N 46°52' W 002°12'3 2.9
2016-Apr-23 04:31N 46°54' W 002°08'0 0.0
2016-Apr-23 03:31N 46°54' W 002°08'0 0.0
2016-Apr-23 02:31N 46°54' W 002°08'0 0.0
2016-Apr-23 01:31N 46°54' W 002°08'0 0.0
2016-Apr-23 00:28N 46°54' W 002°08'0 0.0
2016-Apr-22 23:28N 46°54' W 002°08'0 0.0
2016-Apr-22 22:31N 46°54' W 002°08'0 0.0
2016-Apr-22 21:25N 46°54' W 002°08'0 0.0
2016-Apr-22 20:31N 46°54' W 002°08'0 0.0
2016-Apr-22 19:31N 46°54' W 002°08'0 0.0
2016-Apr-22 18:31N 46°54' W 002°08'0 0.0
2016-Apr-22 17:31N 46°54' W 002°08'0 0.0
2016-Apr-22 16:31N 46°54' W 002°08'0 0.0
2016-Apr-22 15:31N 46°54' W 002°08'0 0.0
2016-Apr-22 14:31N 46°54' W 002°08'5 0.6
2016-Apr-22 05:33N 46°50' W 002°14'5 5.0
2016-Apr-22 04:31N 46°54' W 002°08'0 0.0
2016-Apr-22 03:28N 46°54' W 002°08'0 0.0
2016-Apr-22 02:31N 46°54' W 002°08'0 0.0
2016-Apr-22 01:31N 46°54' W 002°08'0 0.0
2016-Apr-22 00:31N 46°54' W 002°08'0 0.0
2016-Apr-21 23:31N 46°54' W 002°08'0 0.0
2016-Apr-21 22:31N 46°54' W 002°08'0 0.0
2016-Apr-21 21:31N 46°54' W 002°08'0 0.0
2016-Apr-21 20:31N 46°54' W 002°08'0 0.0
2016-Apr-21 19:31N 46°54' W 002°08'0 0.0
2016-Apr-21 18:32N 46°54' W 002°08'0 0.0
2016-Apr-21 17:31N 46°54' W 002°08'0 0.0
2016-Apr-21 16:28N 46°54' W 002°08'0 0.0
2016-Apr-21 15:25N 46°54' W 002°08'0 0.0
2016-Apr-21 14:31N 46°54' W 002°08'7 7.0
2016-Apr-21 13:33N 46°49' W 002°16'6 0.7
2016-Apr-21 05:33N 46°44' W 002°20'1211.6
2016-Apr-21 04:29N 46°54' W 002°08'0 0.0
2016-Apr-21 03:32N 46°54' W 002°08'0 0.0
2016-Apr-21 02:32N 46°54' W 002°08'0 0.0
2016-Apr-21 01:32N 46°54' W 002°08'0 0.0
2016-Apr-21 00:32N 46°54' W 002°08'0 0.0
2016-Apr-20 23:32N 46°54' W 002°08'0 0.0
2016-Apr-20 22:29N 46°54' W 002°08'0 0.0
2016-Apr-20 21:32N 46°54' W 002°08'0 0.0
2016-Apr-20 20:32N 46°54' W 002°08'0 0.0
2016-Apr-20 19:32N 46°54' W 002°08'0 0.0
2016-Apr-20 18:29N 46°54' W 002°08'0 0.0
2016-Apr-20 17:32N 46°54' W 002°08'0 0.0
2016-Apr-20 16:29N 46°54' W 002°08'0 0.0
2016-Apr-20 15:32N 46°54' W 002°08'0 0.0
2016-Apr-20 14:32N 46°54' W 002°08'7 6.8
2016-Apr-20 13:32N 46°49' W 002°16'  

Dump ship's entire track history